sensor_id;sensor_type;location;lat;lon;timestamp;pressure;altitude;pressure_sealevel;temperature;humidity
63700;BME280;49845;47.130;142.766;2022-09-02T00:00:15;100096.03;;;16.67;87.77
63700;BME280;49845;47.130;142.766;2022-09-02T00:02:53;100103.97;;;16.67;87.69
63700;BME280;49845;47.130;142.766;2022-09-02T00:05:32;100108.84;;;16.76;88.43
63700;BME280;49845;47.130;142.766;2022-09-02T00:08:18;100110.47;;;16.80;89.00
63700;BME280;49845;47.130;142.766;2022-09-02T00:11:04;100112.00;;;16.85;88.66
63700;BME280;49845;47.130;142.766;2022-09-02T00:13:45;100114.09;;;17.17;89.56
63700;BME280;49845;47.130;142.766;2022-09-02T00:16:28;100098.53;;;17.66;88.75
63700;BME280;49845;47.130;142.766;2022-09-02T00:19:07;100118.09;;;18.18;87.05
63700;BME280;49845;47.130;142.766;2022-09-02T00:21:48;100115.13;;;18.59;86.62
63700;BME280;49845;47.130;142.766;2022-09-02T00:24:37;100132.03;;;19.07;84.31
63700;BME280;49845;47.130;142.766;2022-09-02T00:27:22;100137.84;;;18.98;80.18
63700;BME280;49845;47.130;142.766;2022-09-02T00:30:14;100126.63;;;18.92;82.21
63700;BME280;49845;47.130;142.766;2022-09-02T00:33:06;100101.00;;;18.93;80.24
63700;BME280;49845;47.130;142.766;2022-09-02T00:35:49;100124.31;;;19.35;81.32
63700;BME280;49845;47.130;142.766;2022-09-02T00:38:36;100129.56;;;19.85;81.96
63700;BME280;49845;47.130;142.766;2022-09-02T00:41:26;100126.34;;;19.94;78.53
63700;BME280;49845;47.130;142.766;2022-09-02T00:44:09;100112.78;;;20.14;78.90
63700;BME280;49845;47.130;142.766;2022-09-02T00:47:07;100137.97;;;20.37;76.82
63700;BME280;49845;47.130;142.766;2022-09-02T00:49:57;100120.53;;;20.03;76.50
63700;BME280;49845;47.130;142.766;2022-09-02T00:52:57;100135.38;;;19.75;77.79
63700;BME280;49845;47.130;142.766;2022-09-02T00:55:44;100135.50;;;19.56;79.08
63700;BME280;49845;47.130;142.766;2022-09-02T00:58:33;100141.75;;;19.39;79.35
63700;BME280;49845;47.130;142.766;2022-09-02T01:01:13;100143.72;;;19.03;76.72
63700;BME280;49845;47.130;142.766;2022-09-02T01:04:02;100107.19;;;18.59;76.74
63700;BME280;49845;47.130;142.766;2022-09-02T01:06:40;100147.47;;;18.99;78.61
63700;BME280;49845;47.130;142.766;2022-09-02T01:09:19;100162.88;;;19.08;80.86
63700;BME280;49845;47.130;142.766;2022-09-02T01:12:00;100153.97;;;19.09;80.55
63700;BME280;49845;47.130;142.766;2022-09-02T01:14:46;100164.22;;;19.32;83.03
63700;BME280;49845;47.130;142.766;2022-09-02T01:17:26;100171.97;;;19.20;81.66
63700;BME280;49845;47.130;142.766;2022-09-02T01:20:12;100156.38;;;18.98;81.05
63700;BME280;49845;47.130;142.766;2022-09-02T01:23:06;100173.88;;;19.00;82.39
63700;BME280;49845;47.130;142.766;2022-09-02T01:25:55;100181.19;;;19.12;84.15
63700;BME280;49845;47.130;142.766;2022-09-02T01:28:34;100180.94;;;19.17;84.87
63700;BME280;49845;47.130;142.766;2022-09-02T01:31:21;100187.59;;;19.24;86.17
63700;BME280;49845;47.130;142.766;2022-09-02T01:34:14;100164.56;;;19.09;85.00
63700;BME280;49845;47.130;142.766;2022-09-02T01:36:54;100189.72;;;19.17;83.64
63700;BME280;49845;47.130;142.766;2022-09-02T01:39:40;100204.31;;;19.09;82.81
63700;BME280;49845;47.130;142.766;2022-09-02T01:42:30;100203.81;;;19.18;82.65
63700;BME280;49845;47.130;142.766;2022-09-02T01:45:10;100207.44;;;19.17;79.86
63700;BME280;49845;47.130;142.766;2022-09-02T01:47:55;100203.78;;;19.35;80.63
63700;BME280;49845;47.130;142.766;2022-09-02T01:50:42;100201.44;;;19.63;79.95
63700;BME280;49845;47.130;142.766;2022-09-02T01:53:31;100180.25;;;20.10;80.81
63700;BME280;49845;47.130;142.766;2022-09-02T01:56:19;100207.81;;;20.38;79.39
63700;BME280;49845;47.130;142.766;2022-09-02T01:58:59;100192.47;;;20.59;75.71
63700;BME280;49845;47.130;142.766;2022-09-02T02:01:40;100204.41;;;20.82;73.34
63700;BME280;49845;47.130;142.766;2022-09-02T02:04:17;100195.47;;;20.83;72.08
63700;BME280;49845;47.130;142.766;2022-09-02T02:07:07;100199.44;;;20.76;71.82
63700;BME280;49845;47.130;142.766;2022-09-02T02:09:54;100211.47;;;20.51;70.31
63700;BME280;49845;47.130;142.766;2022-09-02T02:12:40;100196.66;;;20.01;68.82
63700;BME280;49845;47.130;142.766;2022-09-02T02:15:28;100163.19;;;19.51;70.11
63700;BME280;49845;47.130;142.766;2022-09-02T02:18:22;100207.13;;;19.72;70.74
63700;BME280;49845;47.130;142.766;2022-09-02T02:21:22;100196.81;;;19.66;70.97
63700;BME280;49845;47.130;142.766;2022-09-02T02:24:02;100116.25;;;19.21;69.46
63700;BME280;49845;47.130;142.766;2022-09-02T02:26:49;100209.84;;;19.71;69.63
63700;BME280;49845;47.130;142.766;2022-09-02T02:30:02;100212.44;;;19.55;69.36
63700;BME280;49845;47.130;142.766;2022-09-02T02:32:42;100214.38;;;19.35;68.76
63700;BME280;49845;47.130;142.766;2022-09-02T02:35:25;100211.81;;;19.34;69.19
63700;BME280;49845;47.130;142.766;2022-09-02T02:38:28;100209.44;;;19.61;70.98
63700;BME280;49845;47.130;142.766;2022-09-02T02:41:08;100218.25;;;19.95;69.90
63700;BME280;49845;47.130;142.766;2022-09-02T02:43:45;100221.44;;;20.32;67.92
63700;BME280;49845;47.130;142.766;2022-09-02T02:46:37;100184.16;;;20.19;64.37
63700;BME280;49845;47.130;142.766;2022-09-02T02:49:27;100224.53;;;20.24;64.91
63700;BME280;49845;47.130;142.766;2022-09-02T02:52:07;100235.00;;;20.27;67.58
63700;BME280;49845;47.130;142.766;2022-09-02T02:54:58;100229.94;;;20.22;66.92
63700;BME280;49845;47.130;142.766;2022-09-02T02:57:52;100233.53;;;20.21;66.66
63700;BME280;49845;47.130;142.766;2022-09-02T03:00:31;100241.31;;;20.24;66.99
63700;BME280;49845;47.130;142.766;2022-09-02T03:03:17;100226.25;;;20.09;64.79
63700;BME280;49845;47.130;142.766;2022-09-02T03:05:56;100248.34;;;20.10;62.40
63700;BME280;49845;47.130;142.766;2022-09-02T03:08:40;100249.47;;;19.90;63.46
63700;BME280;49845;47.130;142.766;2022-09-02T03:11:28;100241.66;;;19.87;66.52
63700;BME280;49845;47.130;142.766;2022-09-02T03:14:05;100251.34;;;19.88;65.19
63700;BME280;49845;47.130;142.766;2022-09-02T03:16:45;100250.75;;;19.82;64.94
63700;BME280;49845;47.130;142.766;2022-09-02T03:19:23;100253.50;;;19.97;64.62
63700;BME280;49845;47.130;142.766;2022-09-02T03:22:01;100254.50;;;19.94;62.49
63700;BME280;49845;47.130;142.766;2022-09-02T03:24:43;100261.69;;;20.08;62.82
63700;BME280;49845;47.130;142.766;2022-09-02T03:27:39;100254.16;;;19.85;63.07
63700;BME280;49845;47.130;142.766;2022-09-02T03:30:29;100267.00;;;19.92;63.78
63700;BME280;49845;47.130;142.766;2022-09-02T03:33:14;100270.22;;;19.81;64.17
63700;BME280;49845;47.130;142.766;2022-09-02T03:36:10;100265.25;;;19.75;62.53
63700;BME280;49845;47.130;142.766;2022-09-02T03:42:08;100274.53;;;20.16;61.46
63700;BME280;49845;47.130;142.766;2022-09-02T03:44:53;100284.28;;;20.47;61.86
63700;BME280;49845;47.130;142.766;2022-09-02T03:47:40;100285.78;;;20.51;61.45
63700;BME280;49845;47.130;142.766;2022-09-02T03:50:35;100285.31;;;20.60;61.30
63700;BME280;49845;47.130;142.766;2022-09-02T03:53:17;100249.38;;;20.07;59.70
63700;BME280;49845;47.130;142.766;2022-09-02T03:56:11;100289.41;;;20.18;58.88
63700;BME280;49845;47.130;142.766;2022-09-02T03:58:59;100272.97;;;19.96;60.69
63700;BME280;49845;47.130;142.766;2022-09-02T04:01:41;100300.88;;;20.35;62.45
63700;BME280;49845;47.130;142.766;2022-09-02T04:04:28;100301.91;;;20.48;62.24
63700;BME280;49845;47.130;142.766;2022-09-02T04:07:16;100276.22;;;20.33;62.06
63700;BME280;49845;47.130;142.766;2022-09-02T04:10:25;100303.97;;;20.43;61.33
63700;BME280;49845;47.130;142.766;2022-09-02T04:13:22;100301.41;;;20.57;62.01
63700;BME280;49845;47.130;142.766;2022-09-02T04:16:08;100237.53;;;20.29;62.86
63700;BME280;49845;47.130;142.766;2022-09-02T04:19:00;100310.97;;;20.76;62.36
63700;BME280;49845;47.130;142.766;2022-09-02T04:21:42;100314.72;;;20.72;62.32
63700;BME280;49845;47.130;142.766;2022-09-02T04:24:16;100321.56;;;20.76;63.17
63700;BME280;49845;47.130;142.766;2022-09-02T04:27:10;100328.38;;;20.65;61.94
63700;BME280;49845;47.130;142.766;2022-09-02T04:30:07;100320.13;;;20.54;61.97
63700;BME280;49845;47.130;142.766;2022-09-02T04:33:09;100338.56;;;20.57;61.87
63700;BME280;49845;47.130;142.766;2022-09-02T04:36:03;100341.47;;;20.37;60.22
63700;BME280;49845;47.130;142.766;2022-09-02T04:38:42;100329.13;;;20.36;63.49
63700;BME280;49845;47.130;142.766;2022-09-02T04:41:33;100338.97;;;20.50;63.71
63700;BME280;49845;47.130;142.766;2022-09-02T04:44:15;100353.44;;;20.44;62.37
63700;BME280;49845;47.130;142.766;2022-09-02T04:47:18;100310.47;;;20.21;63.65
63700;BME280;49845;47.130;142.766;2022-09-02T04:50:21;100358.22;;;20.53;62.68
63700;BME280;49845;47.130;142.766;2022-09-02T04:53:15;100356.53;;;20.52;63.84
63700;BME280;49845;47.130;142.766;2022-09-02T04:55:53;100360.47;;;20.45;62.83
63700;BME280;49845;47.130;142.766;2022-09-02T04:58:31;100367.81;;;20.40;63.66
63700;BME280;49845;47.130;142.766;2022-09-02T05:01:27;100375.34;;;20.32;63.15
63700;BME280;49845;47.130;142.766;2022-09-02T05:04:13;100379.63;;;20.18;63.73
63700;BME280;49845;47.130;142.766;2022-09-02T05:06:59;100385.91;;;20.00;62.33
63700;BME280;49845;47.130;142.766;2022-09-02T05:09:43;100386.41;;;19.91;63.68
63700;BME280;49845;47.130;142.766;2022-09-02T05:12:24;100393.31;;;19.77;63.10
63700;BME280;49845;47.130;142.766;2022-09-02T05:15:00;100356.66;;;19.51;63.28
63700;BME280;49845;47.130;142.766;2022-09-02T05:17:40;100399.13;;;19.67;62.43
63700;BME280;49845;47.130;142.766;2022-09-02T05:20:23;100395.31;;;19.55;62.37
63700;BME280;49845;47.130;142.766;2022-09-02T05:23:04;100402.94;;;19.61;63.41
63700;BME280;49845;47.130;142.766;2022-09-02T05:25:40;100402.78;;;19.81;63.45
63700;BME280;49845;47.130;142.766;2022-09-02T05:28:44;100409.19;;;19.95;61.43
63700;BME280;49845;47.130;142.766;2022-09-02T05:31:23;100367.72;;;19.76;60.04
63700;BME280;49845;47.130;142.766;2022-09-02T05:34:10;100402.66;;;19.85;61.69
63700;BME280;49845;47.130;142.766;2022-09-02T05:37:37;100414.16;;;20.01;62.29
63700;BME280;49845;47.130;142.766;2022-09-02T05:40:16;100346.84;;;19.70;61.49
63700;BME280;49845;47.130;142.766;2022-09-02T05:43:02;100402.72;;;20.16;60.41
63700;BME280;49845;47.130;142.766;2022-09-02T05:45:47;100391.97;;;20.19;60.03
63700;BME280;49845;47.130;142.766;2022-09-02T05:48:44;100394.97;;;19.96;59.18
63700;BME280;49845;47.130;142.766;2022-09-02T05:51:55;100405.28;;;20.02;61.49
63700;BME280;49845;47.130;142.766;2022-09-02T05:54:33;100414.41;;;20.30;61.43
63700;BME280;49845;47.130;142.766;2022-09-02T05:57:12;100410.31;;;20.56;59.21
63700;BME280;49845;47.130;142.766;2022-09-02T06:00:03;100422.84;;;20.70;59.47
63700;BME280;49845;47.130;142.766;2022-09-02T06:02:52;100416.81;;;20.50;60.01
63700;BME280;49845;47.130;142.766;2022-09-02T06:05:36;100420.91;;;20.40;59.95
63700;BME280;49845;47.130;142.766;2022-09-02T06:08:26;100420.09;;;20.55;59.90
63700;BME280;49845;47.130;142.766;2022-09-02T06:11:03;100429.06;;;20.68;60.42
63700;BME280;49845;47.130;142.766;2022-09-02T06:13:45;100424.03;;;20.80;60.12
63700;BME280;49845;47.130;142.766;2022-09-02T06:16:22;100408.38;;;20.59;59.62
63700;BME280;49845;47.130;142.766;2022-09-02T06:19:06;100422.47;;;20.76;59.76
63700;BME280;49845;47.130;142.766;2022-09-02T06:22:05;100426.44;;;20.84;60.02
63700;BME280;49845;47.130;142.766;2022-09-02T06:24:45;100432.06;;;20.94;61.43
63700;BME280;49845;47.130;142.766;2022-09-02T06:27:46;100435.16;;;20.71;59.28
63700;BME280;49845;47.130;142.766;2022-09-02T06:30:27;100444.91;;;20.21;60.08
63700;BME280;49845;47.130;142.766;2022-09-02T06:33:09;100374.97;;;19.73;61.64
63700;BME280;49845;47.130;142.766;2022-09-02T06:35:47;100423.06;;;20.00;62.00
63700;BME280;49845;47.130;142.766;2022-09-02T06:38:31;100438.97;;;20.00;62.15
63700;BME280;49845;47.130;142.766;2022-09-02T06:41:26;100441.09;;;20.09;62.32
63700;BME280;49845;47.130;142.766;2022-09-02T06:44:03;100439.41;;;20.08;63.31
63700;BME280;49845;47.130;142.766;2022-09-02T06:46:48;100438.16;;;20.15;64.20
63700;BME280;49845;47.130;142.766;2022-09-02T06:49:26;100432.47;;;20.06;64.71
63700;BME280;49845;47.130;142.766;2022-09-02T06:52:06;100445.81;;;20.04;64.55
63700;BME280;49845;47.130;142.766;2022-09-02T06:55:01;100443.75;;;20.09;65.27
63700;BME280;49845;47.130;142.766;2022-09-02T06:57:46;100445.88;;;20.36;65.38
63700;BME280;49845;47.130;142.766;2022-09-02T07:00:21;100455.22;;;20.60;63.42
63700;BME280;49845;47.130;142.766;2022-09-02T07:03:05;100447.84;;;20.65;62.58
63700;BME280;49845;47.130;142.766;2022-09-02T07:06:04;100461.41;;;20.77;62.53
63700;BME280;49845;47.130;142.766;2022-09-02T07:08:44;100464.19;;;20.74;62.36
63700;BME280;49845;47.130;142.766;2022-09-02T07:11:23;100461.53;;;20.74;60.96
63700;BME280;49845;47.130;142.766;2022-09-02T07:14:11;100464.97;;;20.76;61.39
63700;BME280;49845;47.130;142.766;2022-09-02T07:16:48;100472.53;;;20.99;62.51
63700;BME280;49845;47.130;142.766;2022-09-02T07:19:28;100480.91;;;21.07;60.40
63700;BME280;49845;47.130;142.766;2022-09-02T07:22:11;100464.44;;;21.17;60.70
63700;BME280;49845;47.130;142.766;2022-09-02T07:24:49;100476.78;;;21.18;61.28
63700;BME280;49845;47.130;142.766;2022-09-02T07:27:36;100486.72;;;20.98;59.92
63700;BME280;49845;47.130;142.766;2022-09-02T07:30:20;100476.97;;;20.83;61.44
63700;BME280;49845;47.130;142.766;2022-09-02T07:33:01;100488.44;;;20.67;62.12
63700;BME280;49845;47.130;142.766;2022-09-02T07:35:57;100483.84;;;20.54;63.24
63700;BME280;49845;47.130;142.766;2022-09-02T07:38:38;100499.75;;;20.38;63.05
63700;BME280;49845;47.130;142.766;2022-09-02T07:41:11;100493.63;;;20.20;63.06
63700;BME280;49845;47.130;142.766;2022-09-02T07:43:49;100497.44;;;20.14;63.96
63700;BME280;49845;47.130;142.766;2022-09-02T07:47:09;100495.44;;;20.19;63.47
63700;BME280;49845;47.130;142.766;2022-09-02T07:49:56;100467.19;;;20.01;63.74
63700;BME280;49845;47.130;142.766;2022-09-02T07:52:52;100519.34;;;20.35;65.07
63700;BME280;49845;47.130;142.766;2022-09-02T07:55:29;100520.56;;;20.45;64.07
63700;BME280;49845;47.130;142.766;2022-09-02T07:58:29;100488.16;;;20.23;64.44
63700;BME280;49845;47.130;142.766;2022-09-02T08:01:18;100518.31;;;20.38;64.60
63700;BME280;49845;47.130;142.766;2022-09-02T08:04:02;100538.91;;;20.50;64.53
63700;BME280;49845;47.130;142.766;2022-09-02T08:06:50;100527.88;;;20.24;62.60
63700;BME280;49845;47.130;142.766;2022-09-02T08:09:44;100527.56;;;19.96;62.78
63700;BME280;49845;47.130;142.766;2022-09-02T08:12:22;100532.09;;;19.76;64.10
63700;BME280;49845;47.130;142.766;2022-09-02T08:15:23;100534.13;;;19.71;65.50
63700;BME280;49845;47.130;142.766;2022-09-02T08:18:01;100547.38;;;19.71;65.73
63700;BME280;49845;47.130;142.766;2022-09-02T08:20:47;100543.94;;;19.69;66.86
63700;BME280;49845;47.130;142.766;2022-09-02T08:23:27;100536.97;;;19.67;68.43
63700;BME280;49845;47.130;142.766;2022-09-02T08:26:21;100541.28;;;19.69;68.98
63700;BME280;49845;47.130;142.766;2022-09-02T08:29:27;100559.13;;;19.66;69.30
63700;BME280;49845;47.130;142.766;2022-09-02T08:32:09;100543.56;;;19.40;69.76
63700;BME280;49845;47.130;142.766;2022-09-02T08:34:43;100572.56;;;19.44;70.04
63700;BME280;49845;47.130;142.766;2022-09-02T08:37:30;100575.50;;;19.37;70.54
63700;BME280;49845;47.130;142.766;2022-09-02T08:40:14;100587.31;;;19.30;70.96
63700;BME280;49845;47.130;142.766;2022-09-02T08:43:12;100597.75;;;19.14;71.23
63700;BME280;49845;47.130;142.766;2022-09-02T08:46:01;100592.47;;;18.95;72.19
63700;BME280;49845;47.130;142.766;2022-09-02T08:48:51;100613.78;;;18.72;72.55
63700;BME280;49845;47.130;142.766;2022-09-02T08:51:29;100598.47;;;18.39;73.53
63700;BME280;49845;47.130;142.766;2022-09-02T08:54:15;100612.88;;;18.32;74.61
63700;BME280;49845;47.130;142.766;2022-09-02T08:57:02;100606.69;;;18.13;75.23
63700;BME280;49845;47.130;142.766;2022-09-02T08:59:52;100626.25;;;18.08;76.04
63700;BME280;49845;47.130;142.766;2022-09-02T09:02:44;100628.19;;;17.83;76.53
63700;BME280;49845;47.130;142.766;2022-09-02T09:05:39;100638.88;;;17.56;77.38
63700;BME280;49845;47.130;142.766;2022-09-02T09:08:42;100591.41;;;17.09;78.76
63700;BME280;49845;47.130;142.766;2022-09-02T09:11:30;100647.31;;;17.20;79.55
63700;BME280;49845;47.130;142.766;2022-09-02T09:14:21;100636.41;;;17.06;80.24
63700;BME280;49845;47.130;142.766;2022-09-02T09:17:00;100659.44;;;17.02;80.28
63700;BME280;49845;47.130;142.766;2022-09-02T09:19:55;100647.53;;;16.91;80.85
63700;BME280;49845;47.130;142.766;2022-09-02T09:23:40;100654.16;;;16.77;81.44
63700;BME280;49845;47.130;142.766;2022-09-02T09:26:23;100610.22;;;16.26;81.81
63700;BME280;49845;47.130;142.766;2022-09-02T09:29:22;100667.50;;;16.48;82.56
63700;BME280;49845;47.130;142.766;2022-09-02T09:32:20;100669.94;;;16.27;83.23
63700;BME280;49845;47.130;142.766;2022-09-02T09:35:04;100682.91;;;16.07;83.96
63700;BME280;49845;47.130;142.766;2022-09-02T09:37:45;100682.06;;;15.78;85.20
63700;BME280;49845;47.130;142.766;2022-09-02T09:40:32;100663.72;;;15.45;86.38
63700;BME280;49845;47.130;142.766;2022-09-02T09:43:16;100655.72;;;15.19;87.47
63700;BME280;49845;47.130;142.766;2022-09-02T09:46:26;100671.03;;;15.06;87.98
63700;BME280;49845;47.130;142.766;2022-09-02T09:49:28;100683.00;;;14.85;89.08
63700;BME280;49845;47.130;142.766;2022-09-02T09:52:38;100693.78;;;14.76;89.87
63700;BME280;49845;47.130;142.766;2022-09-02T09:55:30;100659.28;;;14.52;90.43
63700;BME280;49845;47.130;142.766;2022-09-02T09:58:48;100690.53;;;14.66;91.09
63700;BME280;49845;47.130;142.766;2022-09-02T10:18:49;100714.66;;;14.10;93.94
63700;BME280;49845;47.130;142.766;2022-09-02T10:25:50;100701.00;;;13.96;94.97
63700;BME280;49845;47.130;142.766;2022-09-02T10:29:07;100682.22;;;13.75;94.90
63700;BME280;49845;47.130;142.766;2022-09-02T10:36:06;100731.19;;;13.76;95.68
63700;BME280;49845;47.130;142.766;2022-09-02T10:43:32;100731.53;;;13.61;96.03
63700;BME280;49845;47.130;142.766;2022-09-02T10:46:37;100716.91;;;13.49;96.47
63700;BME280;49845;47.130;142.766;2022-09-02T10:49:27;100700.56;;;13.36;96.21
63700;BME280;49845;47.130;142.766;2022-09-02T10:52:37;100728.06;;;13.59;96.60
63700;BME280;49845;47.130;142.766;2022-09-02T10:55:51;100742.50;;;13.80;96.23
63700;BME280;49845;47.130;142.766;2022-09-02T10:58:56;100749.50;;;13.81;95.53
63700;BME280;49845;47.130;142.766;2022-09-02T11:01:43;100746.88;;;13.79;95.15
63700;BME280;49845;47.130;142.766;2022-09-02T11:05:13;100755.69;;;13.78;95.04
63700;BME280;49845;47.130;142.766;2022-09-02T11:08:05;100759.16;;;13.80;94.59
63700;BME280;49845;47.130;142.766;2022-09-02T11:10:58;100759.25;;;13.74;94.33
63700;BME280;49845;47.130;142.766;2022-09-02T11:13:42;100774.94;;;13.77;94.21
63700;BME280;49845;47.130;142.766;2022-09-02T11:16:30;100755.88;;;13.69;93.94
63700;BME280;49845;47.130;142.766;2022-09-02T11:19:32;100768.03;;;13.73;93.70
63700;BME280;49845;47.130;142.766;2022-09-02T11:22:26;100766.38;;;13.69;93.31
63700;BME280;49845;47.130;142.766;2022-09-02T11:25:26;100705.91;;;13.30;93.32
63700;BME280;49845;47.130;142.766;2022-09-02T11:28:27;100757.97;;;13.52;93.26
63700;BME280;49845;47.130;142.766;2022-09-02T11:31:29;100758.13;;;13.44;93.71
63700;BME280;49845;47.130;142.766;2022-09-02T11:34:23;100755.66;;;13.38;93.75
63700;BME280;49845;47.130;142.766;2022-09-02T11:37:08;100758.28;;;13.36;93.85
63700;BME280;49845;47.130;142.766;2022-09-02T11:39:51;100769.81;;;13.28;93.98
63700;BME280;49845;47.130;142.766;2022-09-02T11:46:32;100778.69;;;13.21;94.08
63700;BME280;49845;47.130;142.766;2022-09-02T11:52:52;100773.72;;;13.05;93.35
63700;BME280;49845;47.130;142.766;2022-09-02T11:55:37;100790.13;;;13.18;93.44
63700;BME280;49845;47.130;142.766;2022-09-02T11:58:37;100795.47;;;13.12;93.36
63700;BME280;49845;47.130;142.766;2022-09-02T12:01:29;100766.97;;;12.93;93.31
63700;BME280;49845;47.130;142.766;2022-09-02T12:04:21;100806.03;;;13.09;93.37
63700;BME280;49845;47.130;142.766;2022-09-02T12:07:25;100797.53;;;12.94;93.19
63700;BME280;49845;47.130;142.766;2022-09-02T12:13:35;100796.16;;;12.72;94.52
63700;BME280;49845;47.130;142.766;2022-09-02T12:16:42;100803.19;;;12.70;95.08
63700;BME280;49845;47.130;142.766;2022-09-02T12:19:42;100782.53;;;12.51;95.73
63700;BME280;49845;47.130;142.766;2022-09-02T12:22:36;100801.72;;;12.54;96.12
63700;BME280;49845;47.130;142.766;2022-09-02T12:25:36;100806.97;;;12.54;96.62
63700;BME280;49845;47.130;142.766;2022-09-02T12:28:26;100805.22;;;12.52;96.83
63700;BME280;49845;47.130;142.766;2022-09-02T12:31:15;100779.31;;;12.34;97.05
63700;BME280;49845;47.130;142.766;2022-09-02T12:38:00;100815.50;;;12.65;97.17
63700;BME280;49845;47.130;142.766;2022-09-02T12:40:58;100800.81;;;12.55;96.37
63700;BME280;49845;47.130;142.766;2022-09-02T12:44:02;100752.50;;;12.17;95.74
63700;BME280;49845;47.130;142.766;2022-09-02T12:46:53;100795.81;;;12.39;95.47
63700;BME280;49845;47.130;142.766;2022-09-02T12:49:52;100831.28;;;12.62;95.24
63700;BME280;49845;47.130;142.766;2022-09-02T12:52:41;100823.59;;;12.51;94.84
63700;BME280;49845;47.130;142.766;2022-09-02T12:55:52;100842.03;;;12.46;94.44
63700;BME280;49845;47.130;142.766;2022-09-02T12:58:34;100770.22;;;11.98;93.76
63700;BME280;49845;47.130;142.766;2022-09-02T13:01:22;100841.28;;;12.37;94.04
63700;BME280;49845;47.130;142.766;2022-09-02T13:04:25;100843.97;;;12.32;94.16
63700;BME280;49845;47.130;142.766;2022-09-02T13:11:02;100852.84;;;12.22;94.43
63700;BME280;49845;47.130;142.766;2022-09-02T13:14:11;100847.72;;;12.13;94.46
63700;BME280;49845;47.130;142.766;2022-09-02T13:17:12;100849.53;;;12.11;94.81
63700;BME280;49845;47.130;142.766;2022-09-02T13:20:42;100846.22;;;11.96;94.35
63700;BME280;49845;47.130;142.766;2022-09-02T13:23:57;100847.03;;;12.00;95.25
63700;BME280;49845;47.130;142.766;2022-09-02T13:27:14;100843.53;;;11.98;95.06
63700;BME280;49845;47.130;142.766;2022-09-02T13:30:05;100837.44;;;11.97;95.01
63700;BME280;49845;47.130;142.766;2022-09-02T13:33:04;100844.41;;;12.01;95.24
63700;BME280;49845;47.130;142.766;2022-09-02T13:35:40;100839.06;;;12.07;94.73
63700;BME280;49845;47.130;142.766;2022-09-02T13:38:23;100842.56;;;12.06;94.22
63700;BME280;49845;47.130;142.766;2022-09-02T13:41:28;100850.47;;;12.03;94.19
63700;BME280;49845;47.130;142.766;2022-09-02T13:44:11;100848.78;;;12.01;94.18
63700;BME280;49845;47.130;142.766;2022-09-02T13:46:48;100840.16;;;11.91;93.87
63700;BME280;49845;47.130;142.766;2022-09-02T13:50:03;100804.63;;;11.69;93.75
63700;BME280;49845;47.130;142.766;2022-09-02T13:52:40;100848.78;;;11.99;93.75
63700;BME280;49845;47.130;142.766;2022-09-02T13:55:52;100842.69;;;11.97;94.20
63700;BME280;49845;47.130;142.766;2022-09-02T13:58:51;100830.50;;;11.96;94.77
63700;BME280;49845;47.130;142.766;2022-09-02T14:01:41;100830.44;;;11.99;95.49
63700;BME280;49845;47.130;142.766;2022-09-02T14:04:27;100829.59;;;11.97;95.49
63700;BME280;49845;47.130;142.766;2022-09-02T14:07:14;100822.75;;;11.87;96.08
63700;BME280;49845;47.130;142.766;2022-09-02T14:09:54;100823.56;;;11.92;96.70
63700;BME280;49845;47.130;142.766;2022-09-02T14:12:36;100819.25;;;11.86;96.95
63700;BME280;49845;47.130;142.766;2022-09-02T14:15:24;100838.34;;;11.96;97.00
63700;BME280;49845;47.130;142.766;2022-09-02T14:18:27;100768.88;;;11.66;96.87
63700;BME280;49845;47.130;142.766;2022-09-02T14:21:20;100847.69;;;12.16;96.03
63700;BME280;49845;47.130;142.766;2022-09-02T14:24:02;100849.53;;;12.11;95.52
63700;BME280;49845;47.130;142.766;2022-09-02T14:26:56;100851.31;;;12.05;94.91
63700;BME280;49845;47.130;142.766;2022-09-02T14:29:53;100814.97;;;11.78;94.22
63700;BME280;49845;47.130;142.766;2022-09-02T14:32:28;100853.22;;;11.94;93.93
63700;BME280;49845;47.130;142.766;2022-09-02T14:35:32;100855.03;;;11.86;93.61
63700;BME280;49845;47.130;142.766;2022-09-02T14:38:36;100852.50;;;11.78;93.49
63700;BME280;49845;47.130;142.766;2022-09-02T14:41:26;100851.75;;;11.69;93.44
63700;BME280;49845;47.130;142.766;2022-09-02T14:44:17;100839.56;;;11.64;93.47
63700;BME280;49845;47.130;142.766;2022-09-02T14:46:57;100835.31;;;11.54;93.57
63700;BME280;49845;47.130;142.766;2022-09-02T14:49:53;100844.91;;;11.55;93.71
63700;BME280;49845;47.130;142.766;2022-09-02T14:52:58;100779.06;;;11.16;94.09
63700;BME280;49845;47.130;142.766;2022-09-02T14:55:55;100841.47;;;11.53;94.67
63700;BME280;49845;47.130;142.766;2022-09-02T14:58:32;100844.03;;;11.55;94.49
63700;BME280;49845;47.130;142.766;2022-09-02T15:01:19;100759.13;;;11.05;94.22
63700;BME280;49845;47.130;142.766;2022-09-02T15:04:06;100848.41;;;11.54;93.77
63700;BME280;49845;47.130;142.766;2022-09-02T15:07:00;100856.34;;;11.45;93.93
63700;BME280;49845;47.130;142.766;2022-09-02T15:09:50;100865.81;;;11.57;93.97
63700;BME280;49845;47.130;142.766;2022-09-02T15:12:57;100872.88;;;11.53;93.33
63700;BME280;49845;47.130;142.766;2022-09-02T15:15:40;100882.44;;;11.56;93.23